Time;durP1;ratioP1;P1;durP2;ratioP2;P2;SDS_P1;SDS_P2;PMS_P1;PMS_P2;Temp;Humidity;BMP_temperature;BMP_pressure;BME280_temperature;BME280_humidity;BME280_pressure;Samples;Min_cycle;Max_cycle;Signal;HPM_P1;HPM_P2
2022/08/26 00:01:04;;;;;;;;;;;19.80;97.40;;;;;;5012514;28;19945;-72
2022/08/26 00:03:30;;;;;;;;;;;19.70;97.50;;;;;;5012172;28;19970;-73
2022/08/26 00:05:56;;;;;;;;;;;19.70;97.30;;;;;;5011567;28;19933;-73
2022/08/26 00:08:23;;;;;;;;;;;19.70;97.50;;;;;;5012598;28;19925;-72
2022/08/26 00:10:49;;;;;;;;;;;19.70;97.50;;;;;;5011519;28;20008;-73
2022/08/26 00:13:16;;;;;;;;;;;19.70;97.70;;;;;;5012118;28;19913;-73
2022/08/26 00:15:42;;;;;;;;;;;19.70;97.60;;;;;;5011768;28;19920;-73
2022/08/26 00:18:08;;;;;;;;;;;19.70;97.70;;;;;;5012324;28;19924;-73
2022/08/26 00:20:35;;;;;;;;;;;19.80;97.60;;;;;;5012021;28;19997;-73
2022/08/26 00:23:01;;;;;;;;;;;19.80;97.40;;;;;;5011948;28;19914;-73
2022/08/26 00:28:56;;;;;;;;;;;19.70;97.70;;;;;;5017905;28;20358;-73
2022/08/26 00:31:22;;;;;;;;;;;19.60;98.50;;;;;;5012016;28;19913;-73
2022/08/26 00:33:48;;;;;;;;;;;19.60;98.10;;;;;;5011492;28;20330;-73
2022/08/26 00:36:14;;;;;;;;;;;19.60;97.60;;;;;;5012072;28;19909;-73
2022/08/26 00:38:40;;;;;;;;;;;19.60;97.90;;;;;;5011271;28;19914;-73
2022/08/26 00:41:06;;;;;;;;;;;19.50;98.00;;;;;;5011299;28;20004;-73
2022/08/26 00:43:33;;;;;;;;;;;19.50;98.30;;;;;;5011949;28;19909;-73
2022/08/26 00:46:04;;;;;;;;;;;19.40;98.50;;;;;;5010312;28;19924;-73
2022/08/26 00:48:31;;;;;;;;;;;19.30;98.70;;;;;;5011946;28;19929;-72
2022/08/26 00:51:00;;;;;;;;;;;19.30;98.80;;;;;;5011391;28;19918;-73
2022/08/26 00:53:29;;;;;;;;;;;19.30;99.20;;;;;;5015206;28;19913;-73
2022/08/26 00:56:14;;;;;;;;;;;19.20;99.40;;;;;;5014968;28;20342;-72
2022/08/26 00:58:41;;;;;;;;;;;19.10;99.60;;;;;;5015112;28;19914;-73
2022/08/26 01:01:08;;;;;;;;;;;19.10;99.90;;;;;;5015206;28;19917;-72
2022/08/26 01:03:35;;;;;;;;;;;19.10;99.90;;;;;;5015521;28;20240;-72
2022/08/26 01:06:02;;;;;;;;;;;19.10;99.90;;;;;;5014345;28;19929;-72
2022/08/26 01:08:28;;;;;;;;;;;19.00;99.90;;;;;;5015054;28;19917;-72
2022/08/26 01:10:55;;;;;;;;;;;19.00;99.90;;;;;;5014430;28;19921;-72
2022/08/26 01:13:22;;;;;;;;;;;19.10;99.90;;;;;;5015143;28;19910;-72
2022/08/26 01:15:49;;;;;;;;;;;19.10;99.90;;;;;;5014563;28;20374;-72
2022/08/26 01:18:16;;;;;;;;;;;19.00;99.90;;;;;;5015382;28;20350;-72
2022/08/26 01:21:01;;;;;;;;;;;18.90;99.90;;;;;;5014744;28;19920;-73
2022/08/26 01:23:30;;;;;;;;;;;18.90;99.90;;;;;;5015111;28;19924;-72
2022/08/26 01:25:59;;;;;;;;;;;18.70;99.90;;;;;;5014220;28;19929;-72
2022/08/26 01:28:27;;;;;;;;;;;18.60;99.90;;;;;;5015074;28;19918;-72
2022/08/26 01:30:54;;;;;;;;;;;18.60;99.90;;;;;;5014417;28;19932;-72
2022/08/26 01:33:23;;;;;;;;;;;18.60;99.90;;;;;;5015037;28;20346;-72
2022/08/26 01:35:49;;;;;;;;;;;18.60;99.90;;;;;;5014027;28;19913;-72
2022/08/26 01:38:16;;;;;;;;;;;18.60;99.90;;;;;;5015459;28;19920;-71
2022/08/26 01:40:44;;;;;;;;;;;18.60;99.90;;;;;;5014214;28;19913;-72
2022/08/26 01:43:15;;;;;;;;;;;18.60;99.90;;;;;;5014440;28;19914;-72
2022/08/26 01:45:42;;;;;;;;;;;18.60;99.90;;;;;;5014557;28;19914;-75
2022/08/26 01:48:16;;;;;;;;;;;18.50;99.90;;;;;;5014234;28;19928;-72
2022/08/26 01:50:43;;;;;;;;;;;18.40;99.90;;;;;;5013840;28;19936;-75
2022/08/26 01:53:10;;;;;;;;;;;18.30;99.90;;;;;;5014523;28;19921;-72
2022/08/26 01:55:39;;;;;;;;;;;18.20;99.90;;;;;;5014309;28;19913;-72
2022/08/26 01:58:17;;;;;;;;;;;18.20;99.90;;;;;;5012767;28;19913;-72
2022/08/26 02:00:44;;;;;;;;;;;18.10;99.90;;;;;;5013515;28;19914;-72
2022/08/26 02:03:16;;;;;;;;;;;18.10;99.90;;;;;;5013050;28;19921;-72
2022/08/26 02:05:46;;;;;;;;;;;18.20;99.90;;;;;;5014048;28;19918;-72
2022/08/26 02:08:13;;;;;;;;;;;18.20;99.90;;;;;;5013696;28;19924;-72
2022/08/26 02:10:41;;;;;;;;;;;18.20;99.90;;;;;;5014341;28;20385;-72
2022/08/26 02:13:08;;;;;;;;;;;18.20;99.90;;;;;;5013629;28;19909;-72
2022/08/26 02:15:35;;;;;;;;;;;18.20;99.90;;;;;;5014295;28;19920;-71
2022/08/26 02:18:02;;;;;;;;;;;18.10;99.90;;;;;;5013113;28;19913;-72
2022/08/26 02:20:29;;;;;;;;;;;18.10;99.90;;;;;;5014241;28;19913;-72
2022/08/26 02:22:56;;;;;;;;;;;18.00;99.90;;;;;;5013154;28;19921;-72
2022/08/26 02:25:31;;;;;;;;;;;17.90;99.90;;;;;;5014146;28;19913;-72
2022/08/26 02:27:57;;;;;;;;;;;17.90;99.90;;;;;;5012967;28;19933;-72
2022/08/26 02:30:24;;;;;;;;;;;18.00;99.90;;;;;;5013583;28;20385;-72
2022/08/26 02:32:51;;;;;;;;;;;18.00;99.90;;;;;;5012887;28;20350;-72
2022/08/26 02:35:19;;;;;;;;;;;18.00;99.90;;;;;;5013793;28;19922;-72
2022/08/26 02:37:45;;;;;;;;;;;17.90;99.90;;;;;;5012905;28;19937;-75
2022/08/26 02:40:13;;;;;;;;;;;18.00;99.90;;;;;;5013602;28;20286;-72
2022/08/26 02:42:39;;;;;;;;;;;18.00;99.90;;;;;;5013455;28;20285;-72
2022/08/26 02:45:05;;;;;;;;;;;18.00;99.90;;;;;;5013080;28;20366;-72
2022/08/26 02:47:32;;;;;;;;;;;17.90;99.90;;;;;;5012969;28;19918;-72
2022/08/26 02:49:58;;;;;;;;;;;17.90;99.90;;;;;;5013012;28;20282;-72
2022/08/26 02:52:24;;;;;;;;;;;17.80;99.90;;;;;;5013289;28;19914;-72
2022/08/26 02:54:50;;;;;;;;;;;17.70;99.90;;;;;;5012965;28;20363;-72
2022/08/26 02:57:16;;;;;;;;;;;17.50;99.90;;;;;;5013149;28;19914;-72
2022/08/26 02:59:42;;;;;;;;;;;17.50;99.90;;;;;;5012197;28;19995;-72
2022/08/26 03:02:09;;;;;;;;;;;17.50;99.90;;;;;;5012839;28;19914;-72
2022/08/26 03:04:36;;;;;;;;;;;17.50;99.90;;;;;;5013593;28;20359;-73
2022/08/26 03:07:03;;;;;;;;;;;17.50;99.90;;;;;;5012622;28;19917;-72
2022/08/26 03:09:29;;;;;;;;;;;17.50;99.90;;;;;;5013228;28;19924;-72
2022/08/26 03:11:55;;;;;;;;;;;17.70;99.90;;;;;;5012332;28;19917;-72
2022/08/26 03:14:22;;;;;;;;;;;17.70;99.90;;;;;;4994405;28;19913;-72
2022/08/26 03:16:51;;;;;;;;;;;17.70;99.90;;;;;;5012488;28;19917;-72
2022/08/26 03:19:17;;;;;;;;;;;17.60;99.90;;;;;;5012762;28;19914;-72
2022/08/26 03:21:43;;;;;;;;;;;17.60;99.90;;;;;;4995419;28;20393;-71
2022/08/26 03:24:10;;;;;;;;;;;17.60;99.90;;;;;;5012133;28;20370;-72
2022/08/26 03:26:36;;;;;;;;;;;17.60;99.90;;;;;;5012656;28;19932;-71
2022/08/26 03:31:47;;;;;;;;;;;17.50;99.90;;;;;;5012701;28;19913;-71
2022/08/26 03:34:13;;;;;;;;;;;17.40;99.90;;;;;;5012600;28;19987;-71
2022/08/26 03:36:39;;;;;;;;;;;17.40;99.90;;;;;;5013027;28;19914;-71
2022/08/26 03:39:05;;;;;;;;;;;17.30;99.90;;;;;;5011928;28;20454;-71
2022/08/26 03:41:35;;;;;;;;;;;17.40;99.90;;;;;;5012499;28;19913;-71
2022/08/26 03:44:02;;;;;;;;;;;17.40;99.90;;;;;;5011399;28;19913;-72
2022/08/26 03:46:29;;;;;;;;;;;17.40;99.90;;;;;;5012304;28;19944;-70
2022/08/26 03:48:56;;;;;;;;;;;17.40;99.90;;;;;;5011839;28;19913;-71
2022/08/26 03:51:22;;;;;;;;;;;17.40;99.90;;;;;;5012449;28;20362;-72
2022/08/26 03:53:49;;;;;;;;;;;17.30;99.90;;;;;;5012432;28;19918;-71
2022/08/26 03:56:15;;;;;;;;;;;17.30;99.90;;;;;;5012515;28;19921;-71
2022/08/26 03:58:43;;;;;;;;;;;17.30;99.90;;;;;;5012440;28;19961;-72
2022/08/26 04:01:10;;;;;;;;;;;17.40;99.90;;;;;;5011624;28;19914;-71
2022/08/26 04:06:21;;;;;;;;;;;17.40;99.90;;;;;;5012536;28;19928;-71
2022/08/26 04:08:47;;;;;;;;;;;17.40;99.90;;;;;;5012689;28;19918;-71
2022/08/26 04:11:20;;;;;;;;;;;17.40;99.90;;;;;;5011904;28;19913;-71
2022/08/26 04:13:46;;;;;;;;;;;17.30;99.90;;;;;;5012332;28;19914;-72
2022/08/26 04:16:13;;;;;;;;;;;17.30;99.90;;;;;;5011623;28;20370;-72
2022/08/26 04:18:39;;;;;;;;;;;17.30;99.90;;;;;;5012240;28;19913;-72
2022/08/26 04:21:06;;;;;;;;;;;17.30;99.90;;;;;;5011998;28;19921;-72
2022/08/26 04:23:32;;;;;;;;;;;17.30;99.90;;;;;;5012198;28;19909;-72
2022/08/26 04:25:59;;;;;;;;;;;17.20;99.90;;;;;;5012804;28;20286;-72
2022/08/26 04:28:25;;;;;;;;;;;17.20;99.90;;;;;;5016524;28;19925;-72
2022/08/26 04:30:51;;;;;;;;;;;17.30;99.90;;;;;;5015809;28;19913;-72
2022/08/26 04:33:17;;;;;;;;;;;17.30;99.90;;;;;;5016293;28;20266;-72
2022/08/26 04:35:44;;;;;;;;;;;17.40;99.90;;;;;;5016216;28;19924;-72
2022/08/26 04:38:10;;;;;;;;;;;17.40;99.90;;;;;;5014970;28;19914;-72
2022/08/26 04:40:36;;;;;;;;;;;17.40;99.90;;;;;;5016232;28;19910;-72
2022/08/26 04:43:04;;;;;;;;;;;17.40;99.90;;;;;;5015181;28;19913;-72
2022/08/26 04:45:30;;;;;;;;;;;17.50;99.90;;;;;;5016141;28;19924;-72
2022/08/26 04:47:56;;;;;;;;;;;17.40;99.90;;;;;;5014869;28;19961;-72
2022/08/26 04:50:22;;;;;;;;;;;17.30;99.90;;;;;;5016354;28;20354;-72
2022/08/26 04:52:49;;;;;;;;;;;17.20;99.90;;;;;;5015088;28;20312;-72
2022/08/26 04:55:15;;;;;;;;;;;17.20;99.90;;;;;;5014665;28;19940;-72
2022/08/26 04:57:41;;;;;;;;;;;17.20;99.90;;;;;;5015377;28;19921;-72
2022/08/26 05:00:10;;;;;;;;;;;17.30;99.90;;;;;;4997089;28;20289;-72
2022/08/26 05:02:36;;;;;;;;;;;17.40;99.90;;;;;;5015336;28;19929;-72
2022/08/26 05:05:04;;;;;;;;;;;17.50;99.90;;;;;;5014576;28;19917;-72
2022/08/26 05:07:30;;;;;;;;;;;17.60;99.90;;;;;;5014981;28;19921;-72
2022/08/26 05:09:56;;;;;;;;;;;17.80;99.90;;;;;;5014079;28;19918;-72
2022/08/26 05:12:22;;;;;;;;;;;17.90;99.90;;;;;;5015230;28;19920;-72
2022/08/26 05:14:48;;;;;;;;;;;18.00;99.90;;;;;;5014980;28;20255;-72
2022/08/26 05:17:14;;;;;;;;;;;18.10;99.90;;;;;;5014582;28;20246;-72
2022/08/26 05:19:40;;;;;;;;;;;18.20;99.90;;;;;;5015021;28;19913;-72
2022/08/26 05:22:06;;;;;;;;;;;18.20;99.90;;;;;;5014629;28;20322;-72
2022/08/26 05:24:32;;;;;;;;;;;18.20;99.90;;;;;;5015155;28;20355;-72
2022/08/26 05:26:58;;;;;;;;;;;18.20;99.90;;;;;;5014412;28;20322;-72
2022/08/26 05:29:24;;;;;;;;;;;18.20;99.90;;;;;;5015135;28;19963;-72
2022/08/26 05:31:50;;;;;;;;;;;18.20;99.90;;;;;;5014698;28;19913;-72
2022/08/26 05:34:16;;;;;;;;;;;18.20;99.90;;;;;;5014301;28;19920;-72
2022/08/26 05:36:42;;;;;;;;;;;18.30;99.90;;;;;;5014374;28;19957;-72
2022/08/26 05:39:08;;;;;;;;;;;18.30;99.90;;;;;;5013348;28;20004;-72
2022/08/26 05:41:36;;;;;;;;;;;18.40;99.90;;;;;;5014648;28;19913;-72
2022/08/26 05:44:04;;;;;;;;;;;18.40;99.90;;;;;;5013709;28;19920;-72
2022/08/26 05:46:30;;;;;;;;;;;18.50;99.90;;;;;;5014477;28;19920;-72
2022/08/26 05:48:57;;;;;;;;;;;18.60;99.90;;;;;;5013994;28;20370;-75
2022/08/26 05:51:23;;;;;;;;;;;18.70;99.90;;;;;;5014186;28;19914;-72
2022/08/26 05:53:49;;;;;;;;;;;18.80;99.90;;;;;;5014770;28;19914;-72
2022/08/26 05:56:16;;;;;;;;;;;18.80;99.90;;;;;;5013757;28;19913;-72
2022/08/26 05:58:42;;;;;;;;;;;18.90;99.90;;;;;;5014335;28;19932;-72
2022/08/26 06:01:11;;;;;;;;;;;18.90;99.90;;;;;;5013398;28;20466;-73
2022/08/26 06:03:38;;;;;;;;;;;18.80;99.90;;;;;;5013880;28;19926;-71
2022/08/26 06:06:06;;;;;;;;;;;18.80;99.90;;;;;;5013769;28;19920;-72
2022/08/26 06:08:32;;;;;;;;;;;18.90;99.90;;;;;;5014058;28;19925;-72
2022/08/26 06:10:59;;;;;;;;;;;19.10;99.90;;;;;;5013384;28;19985;-73
2022/08/26 06:13:26;;;;;;;;;;;19.10;99.90;;;;;;5013869;28;19913;-72
2022/08/26 06:15:53;;;;;;;;;;;19.20;99.90;;;;;;5013745;28;19920;-72
2022/08/26 06:18:21;;;;;;;;;;;19.50;99.90;;;;;;5012741;28;19925;-72
2022/08/26 06:20:47;;;;;;;;;;;20.50;99.90;;;;;;5013590;28;19920;-72
2022/08/26 06:26:09;;;;;;;;;;;23.20;94.20;;;;;;4943034;28;20391;-72
2022/08/26 06:28:35;;;;;;;;;;;24.60;88.30;;;;;;5012934;28;19924;-72
2022/08/26 06:31:01;;;;;;;;;;;25.20;83.10;;;;;;5012989;28;20353;-72
2022/08/26 06:33:28;;;;;;;;;;;25.40;78.90;;;;;;5014109;28;19920;-72
2022/08/26 06:35:54;;;;;;;;;;;24.60;80.60;;;;;;5013706;28;19925;-72
2022/08/26 06:38:21;;;;;;;;;;;24.20;83.50;;;;;;5013189;28;19917;-72
2022/08/26 06:40:51;;;;;;;;;;;24.10;83.60;;;;;;5013477;28;19910;-72
2022/08/26 06:43:20;;;;;;;;;;;23.80;83.20;;;;;;5013044;28;19913;-73
2022/08/26 06:45:46;;;;;;;;;;;23.10;87.30;;;;;;5013524;28;19914;-72
2022/08/26 06:48:13;;;;;;;;;;;23.20;87.80;;;;;;5012601;28;19924;-72
2022/08/26 06:50:40;;;;;;;;;;;22.90;90.20;;;;;;5013494;28;19918;-72
2022/08/26 06:53:06;;;;;;;;;;;22.70;90.60;;;;;;5012753;28;19913;-73
2022/08/26 06:55:38;;;;;;;;;;;23.00;91.00;;;;;;5013348;28;19920;-72
2022/08/26 06:58:04;;;;;;;;;;;23.20;89.40;;;;;;5012500;28;19920;-73
2022/08/26 07:00:31;;;;;;;;;;;23.10;89.80;;;;;;5013291;28;20334;-72
2022/08/26 07:02:57;;;;;;;;;;;23.50;88.10;;;;;;4991484;28;19921;-73
2022/08/26 07:05:24;;;;;;;;;;;23.90;84.30;;;;;;4992707;28;19926;-72
2022/08/26 07:07:51;;;;;;;;;;;23.50;86.00;;;;;;4993304;28;19918;-72
2022/08/26 07:10:17;;;;;;;;;;;23.20;87.00;;;;;;4992591;28;19917;-72
2022/08/26 07:12:43;;;;;;;;;;;23.30;86.90;;;;;;4993662;28;20390;-72
2022/08/26 07:15:10;;;;;;;;;;;23.40;85.90;;;;;;4992476;28;19910;-72
2022/08/26 07:17:36;;;;;;;;;;;23.40;85.40;;;;;;4993121;28;19925;-72
2022/08/26 07:20:06;;;;;;;;;;;23.00;87.00;;;;;;4991896;28;21393;-73
2022/08/26 07:22:33;;;;;;;;;;;23.10;87.80;;;;;;4993539;28;19921;-72
2022/08/26 07:24:59;;;;;;;;;;;23.80;84.80;;;;;;4992051;28;19929;-71
2022/08/26 07:27:25;;;;;;;;;;;24.40;82.00;;;;;;4992403;28;19918;-72
2022/08/26 07:29:55;;;;;;;;;;;24.70;77.70;;;;;;4993048;28;20282;-72
2022/08/26 07:32:21;;;;;;;;;;;24.40;77.60;;;;;;4992208;28;19914;-72
2022/08/26 07:34:47;;;;;;;;;;;23.80;80.90;;;;;;4991835;28;19925;-72
2022/08/26 07:37:14;;;;;;;;;;;23.60;83.40;;;;;;4992352;28;19914;-73
2022/08/26 07:39:40;;;;;;;;;;;23.80;83.50;;;;;;4992795;28;20398;-72
2022/08/26 07:42:07;;;;;;;;;;;24.20;83.20;;;;;;4992310;28;19918;-73
2022/08/26 07:44:33;;;;;;;;;;;25.20;77.80;;;;;;4992784;28;20369;-72
2022/08/26 07:46:59;;;;;;;;;;;25.90;73.90;;;;;;4992656;28;19918;-72
2022/08/26 07:49:25;;;;;;;;;;;26.10;72.20;;;;;;4992144;28;19918;-73
2022/08/26 07:51:52;;;;;;;;;;;25.80;72.30;;;;;;4993008;28;19916;-73
2022/08/26 07:54:18;;;;;;;;;;;25.10;74.10;;;;;;4992361;28;20382;-72
2022/08/26 07:56:44;;;;;;;;;;;24.50;76.00;;;;;;4992920;28;19914;-72
2022/08/26 07:59:11;;;;;;;;;;;24.00;79.10;;;;;;4992062;28;19913;-72
2022/08/26 08:01:37;;;;;;;;;;;24.00;79.20;;;;;;4994987;28;19921;-72
2022/08/26 08:04:04;;;;;;;;;;;24.20;79.60;;;;;;5012004;28;19925;-72
2022/08/26 08:06:31;;;;;;;;;;;24.10;79.30;;;;;;5016349;28;19913;-72
2022/08/26 08:08:57;;;;;;;;;;;24.50;79.00;;;;;;5015811;28;19917;-72
2022/08/26 08:11:25;;;;;;;;;;;25.50;75.10;;;;;;5015828;28;19917;-72
2022/08/26 08:13:51;;;;;;;;;;;25.70;74.00;;;;;;5016376;28;19914;-72
2022/08/26 08:16:17;;;;;;;;;;;26.20;72.30;;;;;;5015674;28;19921;-73
2022/08/26 08:18:43;;;;;;;;;;;26.30;71.60;;;;;;4998863;28;19913;-72
2022/08/26 08:21:09;;;;;;;;;;;27.10;69.90;;;;;;5015227;28;20360;-73
2022/08/26 08:23:35;;;;;;;;;;;28.20;65.50;;;;;;5015599;28;19913;-73
2022/08/26 08:26:03;;;;;;;;;;;27.60;65.60;;;;;;5016053;28;20354;-70
2022/08/26 08:28:29;;;;;;;;;;;27.40;66.50;;;;;;4997711;28;19917;-73
2022/08/26 08:30:55;;;;;;;;;;;27.00;66.70;;;;;;5015740;28;19917;-71
2022/08/26 08:33:21;;;;;;;;;;;26.00;69.50;;;;;;5015009;28;19916;-73
2022/08/26 08:35:48;;;;;;;;;;;25.50;71.70;;;;;;5015441;28;19925;-73
2022/08/26 08:38:14;;;;;;;;;;;25.20;72.90;;;;;;5015371;28;19920;-73
2022/08/26 08:40:42;;;;;;;;;;;24.90;74.20;;;;;;5015874;28;19932;-73
2022/08/26 08:43:10;;;;;;;;;;;24.60;75.70;;;;;;5015264;28;19917;-73
2022/08/26 08:45:43;;;;;;;;;;;24.40;76.80;;;;;;5016133;28;19914;-72
2022/08/26 08:48:18;;;;;;;;;;;24.60;77.60;;;;;;5014712;28;19922;-73
2022/08/26 08:50:52;;;;;;;;;;;24.80;77.40;;;;;;5015643;28;19918;-72
2022/08/26 08:53:40;;;;;;;;;;;24.90;76.90;;;;;;5015038;28;19917;-73
2022/08/26 08:56:22;;;;;;;;;;;25.10;76.00;;;;;;4998006;28;19914;-72
2022/08/26 08:58:51;;;;;;;;;;;24.80;76.30;;;;;;5015574;28;19917;-72
2022/08/26 09:01:26;;;;;;;;;;;24.90;77.10;;;;;;5014608;28;19913;-73
2022/08/26 09:04:07;;;;;;;;;;;24.70;77.50;;;;;;5014659;28;19925;-73
2022/08/26 09:06:34;;;;;;;;;;;24.40;78.90;;;;;;5015453;28;19920;-72
2022/08/26 09:09:01;;;;;;;;;;;24.40;80.20;;;;;;5015224;28;19918;-72
2022/08/26 09:11:27;;;;;;;;;;;24.50;79.30;;;;;;5014253;28;19920;-72
2022/08/26 09:13:54;;;;;;;;;;;24.70;78.90;;;;;;5014035;28;20334;-72
2022/08/26 09:16:23;;;;;;;;;;;24.90;78.40;;;;;;5014283;28;19913;-72
2022/08/26 09:18:49;;;;;;;;;;;24.90;78.10;;;;;;5015241;28;19928;-71
2022/08/26 09:21:17;;;;;;;;;;;24.90;77.90;;;;;;5014717;28;20354;-72
2022/08/26 09:23:43;;;;;;;;;;;24.80;78.70;;;;;;5015250;28;19914;-71
2022/08/26 09:26:16;;;;;;;;;;;24.70;78.70;;;;;;5014495;28;20362;-74
2022/08/26 09:28:44;;;;;;;;;;;24.50;79.90;;;;;;5015276;28;19917;-72
2022/08/26 09:31:13;;;;;;;;;;;24.60;79.60;;;;;;5014455;28;19913;-72
2022/08/26 09:33:39;;;;;;;;;;;25.10;78.90;;;;;;5015111;28;19921;-72
2022/08/26 09:36:25;;;;;;;;;;;26.10;75.10;;;;;;5014824;28;20306;-71
2022/08/26 09:38:52;;;;;;;;;;;27.20;71.90;;;;;;5014558;28;19913;-72
2022/08/26 09:41:36;;;;;;;;;;;27.30;70.40;;;;;;5014029;28;19914;-72
2022/08/26 09:44:10;;;;;;;;;;;27.80;68.90;;;;;;5014478;28;20389;-72
2022/08/26 09:46:38;;;;;;;;;;;27.00;70.30;;;;;;5014633;28;19932;-72
2022/08/26 09:49:27;;;;;;;;;;;26.70;70.30;;;;;;5014613;28;19928;-72
2022/08/26 09:52:12;;;;;;;;;;;26.60;70.50;;;;;;5006287;28;19918;-72
2022/08/26 09:54:39;;;;;;;;;;;26.80;70.40;;;;;;5014192;28;19917;-72
2022/08/26 09:57:12;;;;;;;;;;;26.80;70.20;;;;;;5014174;28;20263;-72
2022/08/26 09:59:38;;;;;;;;;;;26.50;70.10;;;;;;5014500;28;19936;-72
2022/08/26 10:02:28;;;;;;;;;;;26.30;71.40;;;;;;5014325;28;19953;-72
2022/08/26 10:04:55;;;;;;;;;;;26.20;71.70;;;;;;5014071;28;20016;-72
2022/08/26 10:07:39;;;;;;;;;;;26.30;71.20;;;;;;5013918;28;20274;-72
2022/08/26 10:10:08;;;;;;;;;;;25.90;71.70;;;;;;5013646;28;19917;-72
2022/08/26 10:12:35;;;;;;;;;;;26.50;73.50;;;;;;5013295;28;19913;-72
2022/08/26 10:15:06;;;;;;;;;;;26.70;70.50;;;;;;5013897;28;19909;-72
2022/08/26 10:17:35;;;;;;;;;;;27.10;68.80;;;;;;5013260;28;19918;-72
2022/08/26 10:20:13;;;;;;;;;;;27.60;68.40;;;;;;5013741;28;19913;-72
2022/08/26 10:22:43;;;;;;;;;;;27.50;66.10;;;;;;4996575;28;19921;-72
2022/08/26 10:25:12;;;;;;;;;;;27.80;65.10;;;;;;5013583;28;19924;-71
2022/08/26 10:27:42;;;;;;;;;;;28.10;63.70;;;;;;5013585;28;19917;-71
2022/08/26 10:30:19;;;;;;;;;;;27.70;64.70;;;;;;5013660;28;19925;-71
2022/08/26 10:32:47;;;;;;;;;;;27.80;64.90;;;;;;5014483;28;20349;-72
2022/08/26 10:35:14;;;;;;;;;;;28.40;66.50;;;;;;5013409;28;19917;-75
2022/08/26 10:37:45;;;;;;;;;;;29.30;61.40;;;;;;5013956;28;19929;-72
2022/08/26 10:40:22;;;;;;;;;;;28.40;61.30;;;;;;5013622;28;20358;-72
2022/08/26 10:42:51;;;;;;;;;;;28.10;62.50;;;;;;5013822;28;19920;-72
2022/08/26 10:45:24;;;;;;;;;;;28.80;60.70;;;;;;5012816;28;19921;-72
2022/08/26 10:47:56;;;;;;;;;;;29.00;60.30;;;;;;4996013;28;19918;-72
2022/08/26 10:50:30;;;;;;;;;;;29.10;60.30;;;;;;5012576;28;20282;-72
2022/08/26 10:53:14;;;;;;;;;;;29.30;59.80;;;;;;5013293;28;19914;-71
2022/08/26 10:55:59;;;;;;;;;;;29.60;58.00;;;;;;5013516;28;19913;-71
2022/08/26 10:58:43;;;;;;;;;;;29.60;57.20;;;;;;5012842;28;19913;-72
2022/08/26 11:04:07;;;;;;;;;;;30.90;55.30;;;;;;5013166;28;19925;-73
2022/08/26 11:06:34;;;;;;;;;;;30.90;56.20;;;;;;5012310;28;20290;-72
2022/08/26 11:09:01;;;;;;;;;;;31.00;55.20;;;;;;5012510;28;19936;-72
2022/08/26 11:11:47;;;;;;;;;;;30.90;55.70;;;;;;5012138;28;19918;-72
2022/08/26 11:14:16;;;;;;;;;;;31.10;57.30;;;;;;5012301;28;19921;-72
2022/08/26 11:16:43;;;;;;;;;;;31.00;55.20;;;;;;4995356;28;20278;-72
2022/08/26 11:19:11;;;;;;;;;;;30.70;56.30;;;;;;5012833;28;19918;-72
2022/08/26 11:21:42;;;;;;;;;;;30.60;56.20;;;;;;5012326;28;19921;-72
2022/08/26 11:24:28;;;;;;;;;;;30.60;55.30;;;;;;5012570;28;19919;-72
2022/08/26 11:26:54;;;;;;;;;;;30.70;55.50;;;;;;5012561;28;19914;-72
2022/08/26 11:29:38;;;;;;;;;;;30.50;56.70;;;;;;5011082;28;19975;-72
2022/08/26 11:32:04;;;;;;;;;;;30.50;56.30;;;;;;5012651;28;19917;-72
2022/08/26 11:34:50;;;;;;;;;;;30.40;56.80;;;;;;5012199;28;19968;-72
2022/08/26 11:37:17;;;;;;;;;;;30.40;56.50;;;;;;5012344;28;19913;-72
2022/08/26 11:39:49;;;;;;;;;;;29.90;56.70;;;;;;5012899;28;19914;-72
2022/08/26 11:42:18;;;;;;;;;;;30.00;56.80;;;;;;5011990;28;19921;-72
2022/08/26 11:44:44;;;;;;;;;;;30.30;56.10;;;;;;5012490;28;19910;-72
2022/08/26 11:47:15;;;;;;;;;;;30.40;56.10;;;;;;5012319;28;19913;-72
2022/08/26 11:49:41;;;;;;;;;;;30.60;56.30;;;;;;5012067;28;19925;-72
2022/08/26 11:52:27;;;;;;;;;;;30.50;55.70;;;;;;5012563;28;19917;-72
2022/08/26 11:55:01;;;;;;;;;;;30.50;55.70;;;;;;5012572;28;19913;-72
2022/08/26 11:57:27;;;;;;;;;;;30.60;55.20;;;;;;5011871;28;19913;-72
2022/08/26 11:59:54;;;;;;;;;;;30.70;54.90;;;;;;5012229;28;20394;-72
2022/08/26 12:02:20;;;;;;;;;;;30.90;54.20;;;;;;5011629;28;19914;-72
2022/08/26 12:04:48;;;;;;;;;;;30.80;54.20;;;;;;5012573;28;19918;-72
2022/08/26 12:07:15;;;;;;;;;;;30.90;54.60;;;;;;5012174;28;19920;-72
2022/08/26 12:10:00;;;;;;;;;;;31.00;54.50;;;;;;5011623;28;19921;-72
2022/08/26 12:12:33;;;;;;;;;;;31.20;54.20;;;;;;5011520;28;19920;-72
2022/08/26 12:15:20;;;;;;;;;;;31.20;53.90;;;;;;4994670;28;19918;-72
2022/08/26 12:17:46;;;;;;;;;;;31.10;54.60;;;;;;5012264;28;19914;-73
2022/08/26 12:20:28;;;;;;;;;;;31.40;53.80;;;;;;5011994;28;20008;-72
2022/08/26 12:22:57;;;;;;;;;;;31.00;54.10;;;;;;5012202;28;19913;-72
2022/08/26 12:25:24;;;;;;;;;;;30.70;55.20;;;;;;5011758;28;19914;-72
2022/08/26 12:27:50;;;;;;;;;;;30.80;55.20;;;;;;4994218;28;19929;-72
2022/08/26 12:30:23;;;;;;;;;;;31.10;54.10;;;;;;5011960;28;19913;-72
2022/08/26 12:33:02;;;;;;;;;;;30.80;54.70;;;;;;5012421;28;19925;-73
2022/08/26 12:35:29;;;;;;;;;;;30.90;54.20;;;;;;5011173;28;20395;-73
2022/08/26 12:37:56;;;;;;;;;;;31.20;54.60;;;;;;5012265;28;19920;-72
2022/08/26 12:40:32;;;;;;;;;;;31.00;54.90;;;;;;5010907;28;20376;-73
2022/08/26 12:42:59;;;;;;;;;;;31.00;55.00;;;;;;5011811;28;20371;-72
2022/08/26 12:45:27;;;;;;;;;;;31.20;54.90;;;;;;5011143;28;19921;-73
2022/08/26 12:47:54;;;;;;;;;;;30.80;54.60;;;;;;5013887;28;19917;-72
2022/08/26 12:50:25;;;;;;;;;;;30.50;55.10;;;;;;5015780;28;19933;-72
2022/08/26 12:52:54;;;;;;;;;;;30.50;55.40;;;;;;5014802;28;19914;-72
2022/08/26 12:55:38;;;;;;;;;;;31.00;55.30;;;;;;5014533;28;19920;-72
2022/08/26 12:58:19;;;;;;;;;;;31.20;53.70;;;;;;5015752;28;19920;-72
2022/08/26 13:00:53;;;;;;;;;;;30.50;54.30;;;;;;5014925;28;19913;-72
2022/08/26 13:03:28;;;;;;;;;;;30.30;54.20;;;;;;5015269;28;19929;-72
2022/08/26 13:06:13;;;;;;;;;;;30.50;54.50;;;;;;5015330;28;19927;-72
2022/08/26 13:08:40;;;;;;;;;;;30.70;53.70;;;;;;5013734;28;19918;-72
2022/08/26 13:11:10;;;;;;;;;;;30.90;52.40;;;;;;5015445;28;19918;-72
2022/08/26 13:13:37;;;;;;;;;;;30.80;52.70;;;;;;5014415;28;19913;-72
2022/08/26 13:16:03;;;;;;;;;;;30.70;51.90;;;;;;5015170;28;19921;-72
2022/08/26 13:18:29;;;;;;;;;;;30.80;52.50;;;;;;5014257;28;19917;-72
2022/08/26 13:20:55;;;;;;;;;;;31.20;53.00;;;;;;5015254;28;20012;-72
2022/08/26 13:23:22;;;;;;;;;;;31.90;51.50;;;;;;5015130;28;20342;-72
2022/08/26 13:25:48;;;;;;;;;;;32.10;50.50;;;;;;5014160;28;19914;-72
2022/08/26 13:28:14;;;;;;;;;;;31.60;50.80;;;;;;5014915;28;19917;-72
2022/08/26 13:30:42;;;;;;;;;;;31.90;52.00;;;;;;5013983;28;19914;-72
2022/08/26 13:33:08;;;;;;;;;;;31.90;50.40;;;;;;5015094;28;19913;-73
2022/08/26 13:35:34;;;;;;;;;;;31.60;50.50;;;;;;5013796;28;20032;-72
2022/08/26 13:38:00;;;;;;;;;;;31.40;51.30;;;;;;5014859;28;19920;-72
2022/08/26 13:40:26;;;;;;;;;;;31.70;51.50;;;;;;5013859;28;20363;-73
2022/08/26 13:42:52;;;;;;;;;;;32.20;49.70;;;;;;5014642;28;19914;-72
2022/08/26 13:45:18;;;;;;;;;;;31.70;50.60;;;;;;5014540;28;19910;-72
2022/08/26 13:47:44;;;;;;;;;;;31.90;50.10;;;;;;5014011;28;19920;-72
2022/08/26 13:50:10;;;;;;;;;;;31.90;50.10;;;;;;5014465;28;20282;-72
2022/08/26 13:52:36;;;;;;;;;;;31.90;50.50;;;;;;5013644;28;19920;-72
2022/08/26 13:55:02;;;;;;;;;;;31.90;50.80;;;;;;5014261;28;19913;-72
2022/08/26 13:57:29;;;;;;;;;;;31.70;50.90;;;;;;5013589;28;20275;-73
2022/08/26 13:59:57;;;;;;;;;;;31.60;51.90;;;;;;5013605;28;20358;-72
2022/08/26 14:02:24;;;;;;;;;;;31.60;51.80;;;;;;5013929;28;19913;-73
2022/08/26 14:04:52;;;;;;;;;;;31.40;52.30;;;;;;5013737;28;19917;-72
2022/08/26 14:07:18;;;;;;;;;;;31.40;52.60;;;;;;5013872;28;19914;-71
2022/08/26 14:09:44;;;;;;;;;;;31.40;52.30;;;;;;5013272;28;19972;-71
2022/08/26 14:12:10;;;;;;;;;;;31.90;52.70;;;;;;4996545;28;19924;-72
2022/08/26 14:14:36;;;;;;;;;;;31.60;52.20;;;;;;5013610;28;19913;-72
2022/08/26 14:17:02;;;;;;;;;;;31.50;52.40;;;;;;5014090;28;20348;-71
2022/08/26 14:19:28;;;;;;;;;;;31.70;51.50;;;;;;5013353;28;19921;-72
2022/08/26 14:21:55;;;;;;;;;;;31.60;52.20;;;;;;5014043;28;19913;-72
2022/08/26 14:24:21;;;;;;;;;;;31.40;52.20;;;;;;5012696;28;20267;-72
2022/08/26 14:26:47;;;;;;;;;;;31.60;51.90;;;;;;5013160;28;20368;-73
2022/08/26 14:29:13;;;;;;;;;;;31.90;51.80;;;;;;5013974;28;19913;-71
2022/08/26 14:31:39;;;;;;;;;;;32.00;50.50;;;;;;5013154;28;19924;-72
2022/08/26 14:34:06;;;;;;;;;;;31.60;50.60;;;;;;5014048;28;19925;-72
2022/08/26 14:36:32;;;;;;;;;;;31.50;50.90;;;;;;5012755;28;19910;-72
2022/08/26 14:39:00;;;;;;;;;;;31.30;51.10;;;;;;5013736;28;20394;-72